sensor_id;sensor_type;location;lat;lon;timestamp;P1;durP1;ratioP1;P2;durP2;ratioP2
31298;SDS011;17927;52.350;13.402;2022-08-19T00:00:38;9.85;;;8.98;;
31298;SDS011;17927;52.350;13.402;2022-08-19T00:03:04;9.57;;;8.88;;
31298;SDS011;17927;52.350;13.402;2022-08-19T00:05:30;10.40;;;9.40;;
31298;SDS011;17927;52.350;13.402;2022-08-19T00:07:56;10.05;;;9.25;;
31298;SDS011;17927;52.350;13.402;2022-08-19T00:10:22;10.75;;;9.10;;
31298;SDS011;17927;52.350;13.402;2022-08-19T00:12:48;9.82;;;9.13;;
31298;SDS011;17927;52.350;13.402;2022-08-19T00:15:14;9.52;;;8.73;;
31298;SDS011;17927;52.350;13.402;2022-08-19T00:17:42;9.75;;;8.88;;
31298;SDS011;17927;52.350;13.402;2022-08-19T00:20:09;9.95;;;8.95;;
31298;SDS011;17927;52.350;13.402;2022-08-19T00:22:37;9.30;;;8.50;;
31298;SDS011;17927;52.350;13.402;2022-08-19T00:25:02;9.98;;;9.18;;
31298;SDS011;17927;52.350;13.402;2022-08-19T00:27:30;9.55;;;8.85;;
31298;SDS011;17927;52.350;13.402;2022-08-19T00:29:55;10.35;;;8.98;;
31298;SDS011;17927;52.350;13.402;2022-08-19T00:32:20;9.48;;;8.68;;
31298;SDS011;17927;52.350;13.402;2022-08-19T00:34:46;10.73;;;9.48;;
31298;SDS011;17927;52.350;13.402;2022-08-19T00:37:11;11.25;;;8.95;;
31298;SDS011;17927;52.350;13.402;2022-08-19T00:39:37;9.95;;;9.15;;
31298;SDS011;17927;52.350;13.402;2022-08-19T00:42:02;10.23;;;9.32;;
31298;SDS011;17927;52.350;13.402;2022-08-19T00:44:28;9.65;;;8.95;;
31298;SDS011;17927;52.350;13.402;2022-08-19T00:46:56;10.48;;;9.57;;
31298;SDS011;17927;52.350;13.402;2022-08-19T00:49:31;10.13;;;9.27;;
31298;SDS011;17927;52.350;13.402;2022-08-19T00:52:40;10.82;;;9.82;;
31298;SDS011;17927;52.350;13.402;2022-08-19T00:54:49;11.30;;;10.20;;
31298;SDS011;17927;52.350;13.402;2022-08-19T00:57:17;10.10;;;9.23;;
31298;SDS011;17927;52.350;13.402;2022-08-19T00:59:46;10.38;;;9.57;;
31298;SDS011;17927;52.350;13.402;2022-08-19T01:02:17;11.15;;;10.05;;
31298;SDS011;17927;52.350;13.402;2022-08-19T01:04:42;10.65;;;9.82;;
31298;SDS011;17927;52.350;13.402;2022-08-19T01:07:07;10.93;;;9.93;;
31298;SDS011;17927;52.350;13.402;2022-08-19T01:09:33;10.25;;;9.48;;
31298;SDS011;17927;52.350;13.402;2022-08-19T01:11:58;10.68;;;9.60;;
31298;SDS011;17927;52.350;13.402;2022-08-19T01:14:24;11.60;;;10.60;;
31298;SDS011;17927;52.350;13.402;2022-08-19T01:16:50;11.98;;;10.63;;
31298;SDS011;17927;52.350;13.402;2022-08-19T01:19:23;17.83;;;9.85;;
31298;SDS011;17927;52.350;13.402;2022-08-19T01:21:59;11.60;;;10.50;;
31298;SDS011;17927;52.350;13.402;2022-08-19T01:24:28;10.20;;;9.32;;
31298;SDS011;17927;52.350;13.402;2022-08-19T01:26:55;10.70;;;9.80;;
31298;SDS011;17927;52.350;13.402;2022-08-19T01:29:21;12.52;;;9.45;;
31298;SDS011;17927;52.350;13.402;2022-08-19T01:31:46;12.48;;;10.35;;
31298;SDS011;17927;52.350;13.402;2022-08-19T01:34:12;10.68;;;9.73;;
31298;SDS011;17927;52.350;13.402;2022-08-19T01:36:42;11.30;;;10.40;;
31298;SDS011;17927;52.350;13.402;2022-08-19T01:39:15;11.13;;;10.13;;
31298;SDS011;17927;52.350;13.402;2022-08-19T01:41:44;11.80;;;10.70;;
31298;SDS011;17927;52.350;13.402;2022-08-19T01:44:09;10.88;;;10.00;;
31298;SDS011;17927;52.350;13.402;2022-08-19T01:46:36;11.52;;;9.88;;
31298;SDS011;17927;52.350;13.402;2022-08-19T01:49:02;11.90;;;10.77;;
31298;SDS011;17927;52.350;13.402;2022-08-19T01:51:29;11.18;;;10.07;;
31298;SDS011;17927;52.350;13.402;2022-08-19T01:53:55;11.75;;;10.57;;
31298;SDS011;17927;52.350;13.402;2022-08-19T01:56:21;11.27;;;10.27;;
31298;SDS011;17927;52.350;13.402;2022-08-19T01:58:49;12.77;;;10.98;;
31298;SDS011;17927;52.350;13.402;2022-08-19T02:01:18;12.40;;;11.20;;
31298;SDS011;17927;52.350;13.402;2022-08-19T02:03:44;11.70;;;10.65;;
31298;SDS011;17927;52.350;13.402;2022-08-19T02:06:09;12.77;;;11.57;;
31298;SDS011;17927;52.350;13.402;2022-08-19T02:08:35;10.85;;;9.85;;
31298;SDS011;17927;52.350;13.402;2022-08-19T02:11:02;11.00;;;9.90;;
31298;SDS011;17927;52.350;13.402;2022-08-19T02:13:27;11.15;;;9.95;;
31298;SDS011;17927;52.350;13.402;2022-08-19T02:15:53;10.95;;;9.98;;
31298;SDS011;17927;52.350;13.402;2022-08-19T02:18:18;10.32;;;9.40;;
31298;SDS011;17927;52.350;13.402;2022-08-19T02:20:43;11.27;;;10.27;;
31298;SDS011;17927;52.350;13.402;2022-08-19T02:23:10;13.35;;;11.25;;
31298;SDS011;17927;52.350;13.402;2022-08-19T02:25:37;12.82;;;10.55;;
31298;SDS011;17927;52.350;13.402;2022-08-19T02:28:03;10.60;;;9.55;;
31298;SDS011;17927;52.350;13.402;2022-08-19T02:30:29;11.18;;;9.95;;
31298;SDS011;17927;52.350;13.402;2022-08-19T02:32:55;11.25;;;10.25;;
31298;SDS011;17927;52.350;13.402;2022-08-19T02:35:20;11.13;;;10.05;;
31298;SDS011;17927;52.350;13.402;2022-08-19T02:37:46;11.63;;;10.55;;
31298;SDS011;17927;52.350;13.402;2022-08-19T02:40:31;10.95;;;9.95;;
31298;SDS011;17927;52.350;13.402;2022-08-19T02:42:59;11.40;;;10.07;;
31298;SDS011;17927;52.350;13.402;2022-08-19T02:45:25;10.85;;;9.90;;
31298;SDS011;17927;52.350;13.402;2022-08-19T02:47:51;11.52;;;10.20;;
31298;SDS011;17927;52.350;13.402;2022-08-19T02:50:16;10.80;;;9.88;;
31298;SDS011;17927;52.350;13.402;2022-08-19T02:52:42;9.70;;;8.90;;
31298;SDS011;17927;52.350;13.402;2022-08-19T02:55:08;10.43;;;9.15;;
31298;SDS011;17927;52.350;13.402;2022-08-19T02:57:33;10.27;;;9.35;;
31298;SDS011;17927;52.350;13.402;2022-08-19T02:59:59;9.95;;;9.05;;
31298;SDS011;17927;52.350;13.402;2022-08-19T03:02:25;9.45;;;8.63;;
31298;SDS011;17927;52.350;13.402;2022-08-19T03:04:50;8.60;;;8.00;;
31298;SDS011;17927;52.350;13.402;2022-08-19T03:07:16;9.85;;;9.02;;
31298;SDS011;17927;52.350;13.402;2022-08-19T03:09:43;10.18;;;9.27;;
31298;SDS011;17927;52.350;13.402;2022-08-19T03:12:08;9.60;;;8.85;;
31298;SDS011;17927;52.350;13.402;2022-08-19T03:14:34;8.55;;;7.82;;
31298;SDS011;17927;52.350;13.402;2022-08-19T03:17:00;9.30;;;8.55;;
31298;SDS011;17927;52.350;13.402;2022-08-19T03:19:26;9.38;;;8.57;;
31298;SDS011;17927;52.350;13.402;2022-08-19T03:21:52;11.00;;;9.98;;
31298;SDS011;17927;52.350;13.402;2022-08-19T03:24:18;10.75;;;9.85;;
31298;SDS011;17927;52.350;13.402;2022-08-19T03:26:46;11.70;;;10.70;;
31298;SDS011;17927;52.350;13.402;2022-08-19T03:29:15;10.52;;;9.68;;
31298;SDS011;17927;52.350;13.402;2022-08-19T03:31:41;11.68;;;10.65;;
31298;SDS011;17927;52.350;13.402;2022-08-19T03:34:08;10.80;;;9.48;;
31298;SDS011;17927;52.350;13.402;2022-08-19T03:36:34;11.10;;;10.20;;
31298;SDS011;17927;52.350;13.402;2022-08-19T03:39:00;10.88;;;9.98;;
31298;SDS011;17927;52.350;13.402;2022-08-19T03:41:27;11.82;;;10.73;;
31298;SDS011;17927;52.350;13.402;2022-08-19T03:43:55;11.50;;;10.50;;
31298;SDS011;17927;52.350;13.402;2022-08-19T03:46:21;12.85;;;11.65;;
31298;SDS011;17927;52.350;13.402;2022-08-19T03:48:50;11.10;;;10.10;;
31298;SDS011;17927;52.350;13.402;2022-08-19T03:51:19;11.88;;;10.88;;
31298;SDS011;17927;52.350;13.402;2022-08-19T03:53:47;11.90;;;10.82;;
31298;SDS011;17927;52.350;13.402;2022-08-19T03:56:13;10.73;;;9.93;;
31298;SDS011;17927;52.350;13.402;2022-08-19T03:58:39;13.98;;;12.60;;
31298;SDS011;17927;52.350;13.402;2022-08-19T04:01:10;13.23;;;11.93;;
31298;SDS011;17927;52.350;13.402;2022-08-19T04:03:37;13.13;;;11.85;;
31298;SDS011;17927;52.350;13.402;2022-08-19T04:06:13;14.32;;;12.93;;
31298;SDS011;17927;52.350;13.402;2022-08-19T04:08:41;13.88;;;12.27;;
31298;SDS011;17927;52.350;13.402;2022-08-19T04:11:09;13.02;;;11.93;;
31298;SDS011;17927;52.350;13.402;2022-08-19T04:13:35;13.52;;;12.23;;
31298;SDS011;17927;52.350;13.402;2022-08-19T04:16:01;14.93;;;13.40;;
31298;SDS011;17927;52.350;13.402;2022-08-19T04:18:26;16.50;;;14.63;;
31298;SDS011;17927;52.350;13.402;2022-08-19T04:20:54;15.10;;;13.73;;
31298;SDS011;17927;52.350;13.402;2022-08-19T04:23:19;15.90;;;14.32;;
31298;SDS011;17927;52.350;13.402;2022-08-19T04:25:45;15.27;;;13.85;;
31298;SDS011;17927;52.350;13.402;2022-08-19T04:28:11;15.68;;;14.07;;
31298;SDS011;17927;52.350;13.402;2022-08-19T04:30:38;16.55;;;12.77;;
31298;SDS011;17927;52.350;13.402;2022-08-19T04:33:09;14.63;;;13.23;;
31298;SDS011;17927;52.350;13.402;2022-08-19T04:35:36;14.65;;;12.75;;
31298;SDS011;17927;52.350;13.402;2022-08-19T04:38:02;13.98;;;12.65;;
31298;SDS011;17927;52.350;13.402;2022-08-19T04:40:28;13.85;;;12.45;;
31298;SDS011;17927;52.350;13.402;2022-08-19T04:43:11;14.38;;;12.50;;
31298;SDS011;17927;52.350;13.402;2022-08-19T04:45:38;14.48;;;13.00;;
31298;SDS011;17927;52.350;13.402;2022-08-19T04:48:03;15.07;;;12.27;;
31298;SDS011;17927;52.350;13.402;2022-08-19T04:50:29;12.20;;;11.05;;
31298;SDS011;17927;52.350;13.402;2022-08-19T04:52:54;12.82;;;11.63;;
31298;SDS011;17927;52.350;13.402;2022-08-19T04:55:20;12.70;;;11.60;;
31298;SDS011;17927;52.350;13.402;2022-08-19T04:57:45;12.48;;;11.27;;
31298;SDS011;17927;52.350;13.402;2022-08-19T05:00:11;11.43;;;10.43;;
31298;SDS011;17927;52.350;13.402;2022-08-19T05:02:37;13.73;;;10.95;;
31298;SDS011;17927;52.350;13.402;2022-08-19T05:05:02;11.10;;;10.20;;
31298;SDS011;17927;52.350;13.402;2022-08-19T05:07:28;12.40;;;11.20;;
31298;SDS011;17927;52.350;13.402;2022-08-19T05:09:54;11.93;;;10.93;;
31298;SDS011;17927;52.350;13.402;2022-08-19T05:12:20;11.13;;;10.23;;
31298;SDS011;17927;52.350;13.402;2022-08-19T05:14:45;11.77;;;10.77;;
31298;SDS011;17927;52.350;13.402;2022-08-19T05:17:11;11.32;;;10.43;;
31298;SDS011;17927;52.350;13.402;2022-08-19T05:19:37;11.65;;;10.50;;
31298;SDS011;17927;52.350;13.402;2022-08-19T05:22:21;11.73;;;10.02;;
31298;SDS011;17927;52.350;13.402;2022-08-19T05:25:04;11.05;;;10.05;;
31298;SDS011;17927;52.350;13.402;2022-08-19T05:27:35;10.65;;;9.68;;
31298;SDS011;17927;52.350;13.402;2022-08-19T05:30:00;9.98;;;9.20;;
31298;SDS011;17927;52.350;13.402;2022-08-19T05:32:26;9.75;;;8.98;;
31298;SDS011;17927;52.350;13.402;2022-08-19T05:34:52;10.13;;;9.23;;
31298;SDS011;17927;52.350;13.402;2022-08-19T05:37:17;9.85;;;8.95;;
31298;SDS011;17927;52.350;13.402;2022-08-19T05:39:42;10.05;;;9.15;;
31298;SDS011;17927;52.350;13.402;2022-08-19T05:42:09;9.95;;;9.25;;
31298;SDS011;17927;52.350;13.402;2022-08-19T05:44:38;9.95;;;8.98;;
31298;SDS011;17927;52.350;13.402;2022-08-19T05:47:08;9.45;;;8.65;;
31298;SDS011;17927;52.350;13.402;2022-08-19T05:49:35;10.05;;;9.15;;
31298;SDS011;17927;52.350;13.402;2022-08-19T05:52:02;10.20;;;9.27;;
31298;SDS011;17927;52.350;13.402;2022-08-19T05:54:33;10.60;;;9.57;;
31298;SDS011;17927;52.350;13.402;2022-08-19T05:57:00;9.45;;;8.63;;
31298;SDS011;17927;52.350;13.402;2022-08-19T05:59:25;10.00;;;9.10;;
31298;SDS011;17927;52.350;13.402;2022-08-19T06:01:53;9.82;;;8.85;;
31298;SDS011;17927;52.350;13.402;2022-08-19T06:04:21;9.75;;;8.98;;
31298;SDS011;17927;52.350;13.402;2022-08-19T06:06:48;9.63;;;8.73;;
31298;SDS011;17927;52.350;13.402;2022-08-19T06:09:16;12.13;;;10.00;;
31298;SDS011;17927;52.350;13.402;2022-08-19T06:11:45;11.05;;;10.00;;
31298;SDS011;17927;52.350;13.402;2022-08-19T06:14:19;11.15;;;9.57;;
31298;SDS011;17927;52.350;13.402;2022-08-19T06:16:49;10.98;;;9.77;;
31298;SDS011;17927;52.350;13.402;2022-08-19T06:19:17;10.82;;;9.77;;
31298;SDS011;17927;52.350;13.402;2022-08-19T06:21:45;12.80;;;9.57;;
31298;SDS011;17927;52.350;13.402;2022-08-19T06:24:12;11.98;;;10.70;;
31298;SDS011;17927;52.350;13.402;2022-08-19T06:26:41;12.20;;;10.25;;
31298;SDS011;17927;52.350;13.402;2022-08-19T06:29:08;10.32;;;9.43;;
31298;SDS011;17927;52.350;13.402;2022-08-19T06:31:35;9.98;;;9.13;;
31298;SDS011;17927;52.350;13.402;2022-08-19T06:34:01;11.00;;;10.00;;
31298;SDS011;17927;52.350;13.402;2022-08-19T06:36:35;11.27;;;9.23;;
31298;SDS011;17927;52.350;13.402;2022-08-19T06:39:10;11.60;;;10.27;;
31298;SDS011;17927;52.350;13.402;2022-08-19T06:41:38;10.27;;;9.48;;
31298;SDS011;17927;52.350;13.402;2022-08-19T06:44:05;10.70;;;9.52;;
31298;SDS011;17927;52.350;13.402;2022-08-19T06:46:31;11.25;;;10.15;;
31298;SDS011;17927;52.350;13.402;2022-08-19T06:48:56;10.77;;;9.75;;
31298;SDS011;17927;52.350;13.402;2022-08-19T06:51:22;11.02;;;9.93;;
31298;SDS011;17927;52.350;13.402;2022-08-19T06:53:49;11.57;;;10.45;;
31298;SDS011;17927;52.350;13.402;2022-08-19T06:56:16;11.30;;;10.40;;
31298;SDS011;17927;52.350;13.402;2022-08-19T06:58:42;11.00;;;10.13;;
31298;SDS011;17927;52.350;13.402;2022-08-19T07:01:08;10.60;;;9.70;;
31298;SDS011;17927;52.350;13.402;2022-08-19T07:03:35;10.70;;;9.77;;
31298;SDS011;17927;52.350;13.402;2022-08-19T07:06:04;11.20;;;10.18;;
31298;SDS011;17927;52.350;13.402;2022-08-19T07:08:32;10.55;;;9.27;;
31298;SDS011;17927;52.350;13.402;2022-08-19T07:10:57;11.50;;;10.40;;
31298;SDS011;17927;52.350;13.402;2022-08-19T07:13:22;12.10;;;10.75;;
31298;SDS011;17927;52.350;13.402;2022-08-19T07:15:48;11.50;;;10.27;;
31298;SDS011;17927;52.350;13.402;2022-08-19T07:18:15;11.02;;;9.93;;
31298;SDS011;17927;52.350;13.402;2022-08-19T07:20:41;11.55;;;10.38;;
31298;SDS011;17927;52.350;13.402;2022-08-19T07:23:07;11.77;;;10.77;;
31298;SDS011;17927;52.350;13.402;2022-08-19T07:25:33;11.27;;;9.73;;
31298;SDS011;17927;52.350;13.402;2022-08-19T07:28:01;11.25;;;10.25;;
31298;SDS011;17927;52.350;13.402;2022-08-19T07:30:26;11.27;;;10.13;;
31298;SDS011;17927;52.350;13.402;2022-08-19T07:32:52;12.40;;;11.10;;
31298;SDS011;17927;52.350;13.402;2022-08-19T07:35:17;13.02;;;11.20;;
31298;SDS011;17927;52.350;13.402;2022-08-19T07:37:44;11.48;;;10.48;;
31298;SDS011;17927;52.350;13.402;2022-08-19T07:40:09;10.73;;;9.73;;
31298;SDS011;17927;52.350;13.402;2022-08-19T07:42:35;13.27;;;11.63;;
31298;SDS011;17927;52.350;13.402;2022-08-19T07:45:01;11.60;;;10.65;;
31298;SDS011;17927;52.350;13.402;2022-08-19T07:47:27;12.85;;;10.93;;
31298;SDS011;17927;52.350;13.402;2022-08-19T07:49:53;13.40;;;10.85;;
31298;SDS011;17927;52.350;13.402;2022-08-19T07:52:18;11.45;;;10.50;;
31298;SDS011;17927;52.350;13.402;2022-08-19T07:54:43;11.27;;;10.30;;
31298;SDS011;17927;52.350;13.402;2022-08-19T07:57:09;12.13;;;10.93;;
31298;SDS011;17927;52.350;13.402;2022-08-19T07:59:34;11.48;;;10.55;;
31298;SDS011;17927;52.350;13.402;2022-08-19T08:02:00;12.57;;;11.35;;
31298;SDS011;17927;52.350;13.402;2022-08-19T08:04:26;12.63;;;11.50;;
31298;SDS011;17927;52.350;13.402;2022-08-19T08:07:10;12.32;;;11.18;;
31298;SDS011;17927;52.350;13.402;2022-08-19T08:09:54;12.13;;;11.13;;
31298;SDS011;17927;52.350;13.402;2022-08-19T08:12:21;14.50;;;11.27;;
31298;SDS011;17927;52.350;13.402;2022-08-19T08:14:51;12.43;;;11.43;;
31298;SDS011;17927;52.350;13.402;2022-08-19T08:17:22;11.90;;;10.80;;
31298;SDS011;17927;52.350;13.402;2022-08-19T08:19:49;12.40;;;11.30;;
31298;SDS011;17927;52.350;13.402;2022-08-19T08:22:16;13.45;;;11.82;;
31298;SDS011;17927;52.350;13.402;2022-08-19T08:25:09;12.50;;;11.40;;
31298;SDS011;17927;52.350;13.402;2022-08-19T08:27:39;14.90;;;12.00;;
31298;SDS011;17927;52.350;13.402;2022-08-19T08:30:07;13.60;;;12.25;;
31298;SDS011;17927;52.350;13.402;2022-08-19T08:32:34;12.98;;;11.80;;
31298;SDS011;17927;52.350;13.402;2022-08-19T08:35:00;14.27;;;12.85;;
31298;SDS011;17927;52.350;13.402;2022-08-19T08:37:25;12.50;;;11.30;;
31298;SDS011;17927;52.350;13.402;2022-08-19T08:39:51;12.57;;;11.40;;
31298;SDS011;17927;52.350;13.402;2022-08-19T08:44:57;13.40;;;12.00;;
31298;SDS011;17927;52.350;13.402;2022-08-19T08:47:32;12.93;;;11.68;;
31298;SDS011;17927;52.350;13.402;2022-08-19T08:50:05;13.68;;;12.30;;
31298;SDS011;17927;52.350;13.402;2022-08-19T08:52:39;13.02;;;11.73;;
31298;SDS011;17927;52.350;13.402;2022-08-19T08:55:13;13.07;;;11.80;;
31298;SDS011;17927;52.350;13.402;2022-08-19T09:02:51;13.93;;;12.57;;
31298;SDS011;17927;52.350;13.402;2022-08-19T09:05:17;14.20;;;12.82;;
31298;SDS011;17927;52.350;13.402;2022-08-19T09:07:55;13.85;;;12.73;;
31298;SDS011;17927;52.350;13.402;2022-08-19T09:10:32;13.55;;;12.35;;
31298;SDS011;17927;52.350;13.402;2022-08-19T09:15:49;16.00;;;14.25;;
31298;SDS011;17927;52.350;13.402;2022-08-19T09:18:19;14.60;;;13.30;;
31298;SDS011;17927;52.350;13.402;2022-08-19T09:20:45;13.63;;;12.52;;
31298;SDS011;17927;52.350;13.402;2022-08-19T09:23:15;15.63;;;14.02;;
31298;SDS011;17927;52.350;13.402;2022-08-19T09:25:41;14.30;;;13.02;;
31298;SDS011;17927;52.350;13.402;2022-08-19T09:28:06;14.40;;;13.05;;
31298;SDS011;17927;52.350;13.402;2022-08-19T09:30:34;15.75;;;14.10;;
31298;SDS011;17927;52.350;13.402;2022-08-19T09:33:04;15.73;;;14.35;;
31298;SDS011;17927;52.350;13.402;2022-08-19T09:35:31;15.80;;;14.30;;
31298;SDS011;17927;52.350;13.402;2022-08-19T09:37:57;15.35;;;13.90;;
31298;SDS011;17927;52.350;13.402;2022-08-19T09:40:23;15.70;;;13.82;;
31298;SDS011;17927;52.350;13.402;2022-08-19T09:42:49;15.15;;;13.93;;
31298;SDS011;17927;52.350;13.402;2022-08-19T09:45:15;15.80;;;14.32;;
31298;SDS011;17927;52.350;13.402;2022-08-19T09:47:42;14.75;;;13.55;;
31298;SDS011;17927;52.350;13.402;2022-08-19T09:50:10;15.07;;;13.68;;
31298;SDS011;17927;52.350;13.402;2022-08-19T09:52:36;16.83;;;15.25;;
31298;SDS011;17927;52.350;13.402;2022-08-19T09:55:03;16.95;;;15.32;;
31298;SDS011;17927;52.350;13.402;2022-08-19T09:57:33;16.60;;;15.18;;
31298;SDS011;17927;52.350;13.402;2022-08-19T09:59:59;15.60;;;14.18;;
31298;SDS011;17927;52.350;13.402;2022-08-19T10:02:24;15.13;;;13.90;;
31298;SDS011;17927;52.350;13.402;2022-08-19T10:04:50;14.57;;;13.25;;
31298;SDS011;17927;52.350;13.402;2022-08-19T10:07:34;13.60;;;12.52;;
31298;SDS011;17927;52.350;13.402;2022-08-19T10:10:00;14.63;;;13.13;;
31298;SDS011;17927;52.350;13.402;2022-08-19T10:12:25;14.70;;;13.40;;
31298;SDS011;17927;52.350;13.402;2022-08-19T10:14:50;14.70;;;13.50;;
31298;SDS011;17927;52.350;13.402;2022-08-19T10:17:18;15.27;;;13.75;;
31298;SDS011;17927;52.350;13.402;2022-08-19T10:19:43;15.52;;;12.70;;
31298;SDS011;17927;52.350;13.402;2022-08-19T10:22:09;14.07;;;12.85;;
31298;SDS011;17927;52.350;13.402;2022-08-19T10:24:39;14.02;;;12.80;;
31298;SDS011;17927;52.350;13.402;2022-08-19T10:27:04;14.27;;;12.70;;
31298;SDS011;17927;52.350;13.402;2022-08-19T10:29:30;14.43;;;13.18;;
31298;SDS011;17927;52.350;13.402;2022-08-19T10:31:56;13.63;;;12.48;;
31298;SDS011;17927;52.350;13.402;2022-08-19T10:34:22;14.98;;;13.63;;
31298;SDS011;17927;52.350;13.402;2022-08-19T10:36:48;14.10;;;12.77;;
31298;SDS011;17927;52.350;13.402;2022-08-19T10:39:13;15.18;;;13.75;;
31298;SDS011;17927;52.350;13.402;2022-08-19T10:41:38;13.88;;;12.57;;
31298;SDS011;17927;52.350;13.402;2022-08-19T10:44:10;13.32;;;12.00;;
31298;SDS011;17927;52.350;13.402;2022-08-19T10:46:39;13.98;;;12.77;;
31298;SDS011;17927;52.350;13.402;2022-08-19T10:49:10;14.38;;;13.10;;
31298;SDS011;17927;52.350;13.402;2022-08-19T10:51:36;14.38;;;13.18;;
31298;SDS011;17927;52.350;13.402;2022-08-19T10:54:21;14.15;;;13.02;;
31298;SDS011;17927;52.350;13.402;2022-08-19T10:56:46;16.38;;;12.88;;
31298;SDS011;17927;52.350;13.402;2022-08-19T10:59:21;13.60;;;12.40;;
31298;SDS011;17927;52.350;13.402;2022-08-19T11:01:49;13.95;;;12.65;;
31298;SDS011;17927;52.350;13.402;2022-08-19T11:04:16;13.07;;;11.70;;
31298;SDS011;17927;52.350;13.402;2022-08-19T11:06:46;13.23;;;12.10;;
31298;SDS011;17927;52.350;13.402;2022-08-19T11:09:13;12.18;;;11.00;;
31298;SDS011;17927;52.350;13.402;2022-08-19T11:11:40;13.07;;;11.80;;
31298;SDS011;17927;52.350;13.402;2022-08-19T11:14:07;15.18;;;13.77;;
31298;SDS011;17927;52.350;13.402;2022-08-19T11:16:34;13.00;;;11.93;;
31298;SDS011;17927;52.350;13.402;2022-08-19T11:19:00;13.02;;;11.93;;
31298;SDS011;17927;52.350;13.402;2022-08-19T11:21:27;14.77;;;11.13;;
31298;SDS011;17927;52.350;13.402;2022-08-19T11:23:58;11.77;;;10.77;;
31298;SDS011;17927;52.350;13.402;2022-08-19T11:26:29;11.25;;;10.32;;
31298;SDS011;17927;52.350;13.402;2022-08-19T11:28:56;13.68;;;12.38;;
31298;SDS011;17927;52.350;13.402;2022-08-19T11:31:24;11.68;;;10.77;;
31298;SDS011;17927;52.350;13.402;2022-08-19T11:34:01;11.40;;;10.52;;
31298;SDS011;17927;52.350;13.402;2022-08-19T11:36:28;11.85;;;10.85;;
31298;SDS011;17927;52.350;13.402;2022-08-19T11:38:54;12.43;;;11.40;;
31298;SDS011;17927;52.350;13.402;2022-08-19T11:41:20;12.07;;;11.02;;
31298;SDS011;17927;52.350;13.402;2022-08-19T11:43:48;13.40;;;12.23;;
31298;SDS011;17927;52.350;13.402;2022-08-19T11:46:15;13.77;;;12.38;;
31298;SDS011;17927;52.350;13.402;2022-08-19T11:48:41;14.20;;;10.45;;
31298;SDS011;17927;52.350;13.402;2022-08-19T11:51:08;11.57;;;10.75;;
31298;SDS011;17927;52.350;13.402;2022-08-19T11:53:35;12.68;;;11.50;;
31298;SDS011;17927;52.350;13.402;2022-08-19T11:56:01;11.32;;;10.35;;
31298;SDS011;17927;52.350;13.402;2022-08-19T11:58:27;11.35;;;10.27;;
31298;SDS011;17927;52.350;13.402;2022-08-19T12:00:53;11.00;;;10.10;;
31298;SDS011;17927;52.350;13.402;2022-08-19T12:03:19;10.98;;;10.15;;
31298;SDS011;17927;52.350;13.402;2022-08-19T12:05:44;14.02;;;10.00;;
31298;SDS011;17927;52.350;13.402;2022-08-19T12:08:10;10.57;;;9.60;;
31298;SDS011;17927;52.350;13.402;2022-08-19T12:10:37;11.07;;;10.15;;
31298;SDS011;17927;52.350;13.402;2022-08-19T12:13:03;11.52;;;10.52;;
31298;SDS011;17927;52.350;13.402;2022-08-19T12:15:28;10.52;;;9.45;;
31298;SDS011;17927;52.350;13.402;2022-08-19T12:17:54;10.27;;;9.50;;
31298;SDS011;17927;52.350;13.402;2022-08-19T12:20:21;11.07;;;10.00;;
31298;SDS011;17927;52.350;13.402;2022-08-19T12:22:47;9.20;;;8.50;;
31298;SDS011;17927;52.350;13.402;2022-08-19T12:25:13;8.90;;;8.15;;
31298;SDS011;17927;52.350;13.402;2022-08-19T12:27:39;8.98;;;8.38;;
31298;SDS011;17927;52.350;13.402;2022-08-19T12:30:05;8.43;;;7.93;;
31298;SDS011;17927;52.350;13.402;2022-08-19T12:32:33;8.18;;;7.68;;
31298;SDS011;17927;52.350;13.402;2022-08-19T12:34:59;9.77;;;8.82;;
31298;SDS011;17927;52.350;13.402;2022-08-19T12:37:24;9.00;;;8.13;;
31298;SDS011;17927;52.350;13.402;2022-08-19T12:39:49;8.40;;;7.75;;
31298;SDS011;17927;52.350;13.402;2022-08-19T12:42:15;7.63;;;7.13;;
31298;SDS011;17927;52.350;13.402;2022-08-19T12:44:41;8.65;;;7.60;;
31298;SDS011;17927;52.350;13.402;2022-08-19T12:47:08;8.15;;;7.45;;
31298;SDS011;17927;52.350;13.402;2022-08-19T12:49:35;7.68;;;7.07;;
31298;SDS011;17927;52.350;13.402;2022-08-19T12:52:02;7.97;;;7.47;;
31298;SDS011;17927;52.350;13.402;2022-08-19T12:54:28;8.35;;;7.63;;
31298;SDS011;17927;52.350;13.402;2022-08-19T12:56:55;8.93;;;8.10;;
31298;SDS011;17927;52.350;13.402;2022-08-19T12:59:21;8.48;;;7.68;;
31298;SDS011;17927;52.350;13.402;2022-08-19T13:01:46;8.45;;;7.75;;
31298;SDS011;17927;52.350;13.402;2022-08-19T13:04:12;8.10;;;7.40;;
31298;SDS011;17927;52.350;13.402;2022-08-19T13:06:37;7.45;;;6.95;;
31298;SDS011;17927;52.350;13.402;2022-08-19T13:09:03;7.90;;;7.35;;
31298;SDS011;17927;52.350;13.402;2022-08-19T13:11:29;7.70;;;7.10;;
31298;SDS011;17927;52.350;13.402;2022-08-19T13:13:57;7.35;;;6.75;;
31298;SDS011;17927;52.350;13.402;2022-08-19T13:16:23;8.02;;;7.43;;
31298;SDS011;17927;52.350;13.402;2022-08-19T13:18:48;7.22;;;6.60;;
31298;SDS011;17927;52.350;13.402;2022-08-19T13:21:17;8.40;;;7.75;;
31298;SDS011;17927;52.350;13.402;2022-08-19T13:23:45;7.78;;;7.28;;
31298;SDS011;17927;52.350;13.402;2022-08-19T13:26:11;9.02;;;8.20;;
31298;SDS011;17927;52.350;13.402;2022-08-19T13:28:38;13.50;;;12.20;;
31298;SDS011;17927;52.350;13.402;2022-08-19T13:31:23;14.73;;;13.52;;
31298;SDS011;17927;52.350;13.402;2022-08-19T13:34:09;14.15;;;12.85;;
31298;SDS011;17927;52.350;13.402;2022-08-19T13:36:35;14.20;;;13.02;;
31298;SDS011;17927;52.350;13.402;2022-08-19T13:39:02;15.48;;;14.00;;
31298;SDS011;17927;52.350;13.402;2022-08-19T13:41:28;15.65;;;14.23;;
31298;SDS011;17927;52.350;13.402;2022-08-19T13:43:54;16.80;;;14.43;;
31298;SDS011;17927;52.350;13.402;2022-08-19T13:46:19;16.80;;;15.25;;
31298;SDS011;17927;52.350;13.402;2022-08-19T13:48:45;15.65;;;14.15;;
31298;SDS011;17927;52.350;13.402;2022-08-19T13:51:13;16.25;;;14.65;;
31298;SDS011;17927;52.350;13.402;2022-08-19T13:53:41;15.80;;;14.30;;
31298;SDS011;17927;52.350;13.402;2022-08-19T13:56:08;16.02;;;14.52;;
31298;SDS011;17927;52.350;13.402;2022-08-19T13:58:35;15.38;;;13.85;;
31298;SDS011;17927;52.350;13.402;2022-08-19T14:01:01;14.75;;;13.45;;
31298;SDS011;17927;52.350;13.402;2022-08-19T14:03:27;15.60;;;14.20;;
31298;SDS011;17927;52.350;13.402;2022-08-19T14:05:52;14.60;;;13.23;;
31298;SDS011;17927;52.350;13.402;2022-08-19T14:08:18;14.02;;;12.93;;
31298;SDS011;17927;52.350;13.402;2022-08-19T14:10:43;14.40;;;13.10;;
31298;SDS011;17927;52.350;13.402;2022-08-19T14:13:12;14.10;;;12.80;;
31298;SDS011;17927;52.350;13.402;2022-08-19T14:15:39;13.50;;;12.35;;
31298;SDS011;17927;52.350;13.402;2022-08-19T14:18:05;13.60;;;12.50;;
31298;SDS011;17927;52.350;13.402;2022-08-19T14:20:30;14.18;;;12.88;;
31298;SDS011;17927;52.350;13.402;2022-08-19T14:22:59;13.60;;;12.40;;
31298;SDS011;17927;52.350;13.402;2022-08-19T14:25:26;13.45;;;12.15;;
31298;SDS011;17927;52.350;13.402;2022-08-19T14:27:53;12.90;;;11.80;;